createdAt,value
2017-12-28T00:00:05.560Z,1.32
2017-12-28T00:01:08.098Z,1.3
2017-12-28T00:02:05.540Z,1.35
2017-12-28T00:03:06.033Z,1.36
2017-12-28T00:04:05.939Z,1.33
2017-12-28T00:05:05.449Z,1.35
2017-12-28T00:06:05.261Z,1.31
2017-12-28T00:07:05.903Z,1.36
2017-12-28T00:08:07.185Z,1.33
2017-12-28T00:09:07.315Z,1.35
2017-12-28T00:10:07.323Z,1.32
2017-12-28T00:11:07.516Z,1.35
2017-12-28T00:12:05.769Z,1.34
2017-12-28T00:13:07.210Z,1.37
2017-12-28T00:14:07.723Z,1.37
2017-12-28T00:15:07.341Z,1.37
2017-12-28T00:16:07.278Z,1.36
2017-12-28T00:17:07.360Z,1.33
2017-12-28T00:18:08.083Z,1.3
2017-12-28T00:19:07.369Z,1.35
2017-12-28T00:20:06.952Z,1.37
2017-12-28T00:21:06.047Z,1.34
2017-12-28T00:22:05.757Z,1.33
2017-12-28T00:23:07.215Z,1.36
2017-12-28T00:24:07.501Z,1.35
2017-12-28T00:25:07.495Z,1.36
2017-12-28T00:26:07.590Z,1.37
2017-12-28T00:27:07.429Z,1.39
2017-12-28T00:28:07.680Z,1.42
2017-12-28T00:29:07.341Z,1.42
2017-12-28T00:30:07.404Z,1.4
2017-12-28T00:31:07.277Z,1.42
2017-12-28T00:32:06.940Z,1.36
2017-12-28T00:33:05.930Z,1.37
2017-12-28T00:34:05.945Z,1.36
2017-12-28T00:35:05.839Z,1.4
2017-12-28T00:36:05.665Z,1.37
2017-12-28T00:37:07.476Z,1.41
2017-12-28T00:38:07.352Z,1.41
2017-12-28T00:39:07.187Z,1.42
2017-12-28T00:40:07.154Z,1.4
2017-12-28T00:41:07.110Z,1.44
2017-12-28T00:42:05.977Z,1.45
2017-12-28T00:43:05.815Z,1.42
2017-12-28T00:44:06.031Z,1.4
2017-12-28T00:45:05.969Z,1.42
2017-12-28T00:46:07.391Z,1.42
2017-12-28T00:47:06.949Z,1.44
2017-12-28T00:48:05.992Z,1.43
2017-12-28T00:49:05.980Z,1.41
2017-12-28T00:50:07.216Z,1.44
2017-12-28T00:51:07.440Z,1.47
2017-12-28T00:52:07.705Z,1.44
2017-12-28T00:53:05.853Z,1.43
2017-12-28T00:54:05.833Z,1.41
2017-12-28T00:55:07.255Z,1.48
2017-12-28T00:56:07.296Z,1.5
2017-12-28T00:57:07.599Z,1.46
2017-12-28T00:58:07.721Z,1.46
2017-12-28T00:59:07.251Z,1.48
2017-12-28T01:00:07.446Z,1.45
2017-12-28T01:01:07.462Z,1.48
2017-12-28T01:02:07.882Z,1.54
2017-12-28T01:03:07.392Z,1.52
2017-12-28T01:04:07.797Z,1.51
2017-12-28T01:05:06.073Z,1.57
2017-12-28T01:06:07.816Z,1.56
2017-12-28T01:07:07.155Z,1.55
2017-12-28T01:08:07.531Z,1.59
2017-12-28T01:09:05.346Z,1.58
2017-12-28T01:10:06.527Z,1.57
2017-12-28T01:11:07.290Z,1.56
2017-12-28T01:12:05.489Z,1.61
2017-12-28T01:13:05.376Z,1.6
2017-12-28T01:14:05.814Z,1.67
2017-12-28T01:15:05.980Z,1.67
2017-12-28T01:16:05.820Z,1.64
2017-12-28T01:17:07.428Z,1.59
2017-12-28T01:18:07.412Z,1.66
2017-12-28T01:19:08.431Z,1.67
2017-12-28T01:20:07.641Z,1.66
2017-12-28T01:21:05.612Z,1.64
2017-12-28T01:22:05.731Z,1.65
2017-12-28T01:23:05.768Z,1.75
2017-12-28T01:24:08.188Z,1.69
2017-12-28T01:25:05.932Z,1.68
2017-12-28T01:26:07.207Z,1.68
2017-12-28T01:27:05.428Z,1.76
2017-12-28T01:28:05.817Z,1.73
2017-12-28T01:29:05.578Z,1.78
2017-12-28T01:30:05.843Z,1.75
2017-12-28T01:31:05.949Z,1.74
2017-12-28T01:32:09.324Z,1.77
2017-12-28T01:33:07.069Z,1.72
2017-12-28T01:34:07.157Z,1.72
2017-12-28T01:35:05.525Z,1.7
2017-12-28T01:36:07.298Z,1.79
2017-12-28T01:37:05.757Z,1.75
2017-12-28T01:38:05.915Z,1.77
2017-12-28T01:39:05.958Z,1.78
2017-12-28T01:40:08.367Z,1.75
2017-12-28T01:41:07.954Z,1.76
2017-12-28T01:42:05.964Z,1.83
2017-12-28T01:43:07.585Z,1.76
2017-12-28T01:44:07.636Z,1.78
2017-12-28T01:45:07.883Z,1.82
2017-12-28T01:46:08.000Z,1.77
2017-12-28T01:47:07.608Z,1.85
2017-12-28T01:48:07.910Z,1.76
2017-12-28T01:49:08.032Z,1.76
2017-12-28T01:50:06.149Z,1.74
2017-12-28T01:51:07.295Z,1.8
2017-12-28T01:52:07.593Z,1.73
2017-12-28T01:53:07.615Z,1.84
2017-12-28T01:54:07.569Z,1.75
2017-12-28T01:55:07.868Z,1.86
2017-12-28T01:56:07.200Z,1.81
2017-12-28T01:57:07.866Z,1.85
2017-12-28T01:58:07.325Z,1.87
2017-12-28T01:59:07.425Z,1.83
2017-12-28T02:00:07.692Z,1.79
2017-12-28T02:01:09.636Z,1.83
2017-12-28T02:02:07.877Z,1.84
2017-12-28T02:03:08.214Z,1.79
2017-12-28T02:04:07.744Z,1.89
2017-12-28T02:05:08.117Z,1.85
2017-12-28T02:06:07.580Z,1.85
2017-12-28T02:07:07.063Z,1.89
2017-12-28T02:08:06.035Z,1.82
2017-12-28T02:09:07.373Z,1.85
2017-12-28T02:10:08.185Z,1.89
2017-12-28T02:11:07.560Z,1.86
2017-12-28T02:12:06.119Z,1.93
2017-12-28T02:13:08.258Z,1.88
2017-12-28T02:14:07.937Z,1.93
2017-12-28T02:15:06.032Z,1.87
2017-12-28T02:16:07.348Z,1.95
2017-12-28T02:17:05.817Z,1.89
2017-12-28T02:18:05.744Z,1.94
2017-12-28T02:19:05.715Z,1.86
2017-12-28T02:20:05.843Z,1.84
2017-12-28T02:21:05.966Z,1.95
2017-12-28T02:22:05.761Z,1.91
2017-12-28T02:23:05.812Z,1.92
2017-12-28T02:24:05.736Z,1.9
2017-12-28T02:25:05.470Z,1.95
2017-12-28T02:26:06.087Z,1.97
2017-12-28T02:27:07.245Z,2.01
2017-12-28T02:28:05.346Z,1.96
2017-12-28T02:29:05.395Z,2
2017-12-28T02:30:05.409Z,1.95
2017-12-28T02:31:05.806Z,1.91
2017-12-28T02:32:06.105Z,1.87
2017-12-28T02:33:06.110Z,1.96
2017-12-28T02:34:05.276Z,1.96
2017-12-28T02:35:05.298Z,1.98
2017-12-28T02:36:05.409Z,1.96
2017-12-28T02:37:05.554Z,1.96
2017-12-28T02:38:06.081Z,1.9
2017-12-28T02:39:06.051Z,1.93
2017-12-28T02:40:06.183Z,1.92
2017-12-28T02:41:05.767Z,2.02
2017-12-28T02:43:05.834Z,1.95
2017-12-28T02:44:05.658Z,1.99
2017-12-28T02:45:05.412Z,2.02
2017-12-28T02:46:05.541Z,1.99
2017-12-28T02:47:06.952Z,1.98
2017-12-28T02:48:06.928Z,1.96
2017-12-28T02:49:06.057Z,1.93
2017-12-28T02:50:06.097Z,1.9
2017-12-28T02:51:05.711Z,2.04
2017-12-28T02:52:05.336Z,1.92
2017-12-28T02:53:06.144Z,1.98
2017-12-28T02:54:05.877Z,1.9
2017-12-28T02:55:05.657Z,1.87
2017-12-28T02:56:05.549Z,1.91
2017-12-28T02:57:06.051Z,1.85
2017-12-28T02:58:05.809Z,1.92
2017-12-28T02:59:05.715Z,1.86
2017-12-28T03:00:05.530Z,1.88
2017-12-28T03:01:06.942Z,1.92
2017-12-28T03:02:05.950Z,1.87
2017-12-28T03:03:05.633Z,1.89
2017-12-28T03:04:05.614Z,1.88
2017-12-28T03:05:05.352Z,1.92
2017-12-28T03:06:05.473Z,1.89
2017-12-28T03:07:05.442Z,1.87
2017-12-28T03:08:05.524Z,1.92
2017-12-28T03:09:06.152Z,1.9
2017-12-28T03:10:06.015Z,2
2017-12-28T03:11:05.819Z,1.91
2017-12-28T03:12:07.426Z,1.88
2017-12-28T03:13:06.049Z,1.88
2017-12-28T03:14:05.847Z,1.83
2017-12-28T03:15:07.896Z,1.85
2017-12-28T03:16:07.270Z,1.87
2017-12-28T03:17:07.161Z,1.85
2017-12-28T03:18:07.021Z,1.81
2017-12-28T03:19:05.940Z,1.83
2017-12-28T03:20:06.012Z,1.91
2017-12-28T03:21:07.536Z,1.88
2017-12-28T03:22:05.933Z,1.86
2017-12-28T03:23:06.933Z,1.88
2017-12-28T03:24:07.124Z,1.88
2017-12-28T03:25:07.082Z,1.86
2017-12-28T03:26:07.199Z,1.83
2017-12-28T03:27:06.169Z,1.85
2017-12-28T03:28:05.819Z,1.82
2017-12-28T03:29:05.777Z,1.81
2017-12-28T03:30:07.204Z,1.81
2017-12-28T03:31:06.082Z,1.81
2017-12-28T03:32:06.036Z,1.91
2017-12-28T03:33:06.958Z,1.77
2017-12-28T03:34:07.143Z,1.82
2017-12-28T03:35:07.401Z,1.83
2017-12-28T03:36:07.736Z,1.9
2017-12-28T03:37:07.009Z,1.84
2017-12-28T03:38:06.183Z,1.8
2017-12-28T03:39:05.984Z,1.9
2017-12-28T03:40:06.149Z,1.82
2017-12-28T03:41:05.918Z,1.82
2017-12-28T03:42:07.331Z,1.76
2017-12-28T03:43:06.452Z,1.71
2017-12-28T03:44:07.937Z,1.7
2017-12-28T03:45:06.132Z,1.77
2017-12-28T03:46:07.457Z,1.71
2017-12-28T03:47:07.441Z,1.7
2017-12-28T03:48:07.714Z,1.69
2017-12-28T03:49:07.345Z,1.74
2017-12-28T03:50:07.576Z,1.74
2017-12-28T03:51:07.718Z,1.75
2017-12-28T03:52:07.141Z,1.72
2017-12-28T03:53:07.043Z,1.72
2017-12-28T03:55:07.462Z,1.66
2017-12-28T03:56:08.719Z,1.66
2017-12-28T03:57:08.075Z,1.66
2017-12-28T03:58:06.072Z,1.7
2017-12-28T03:59:07.744Z,1.72
2017-12-28T04:00:08.022Z,1.7
2017-12-28T04:01:06.088Z,1.71
2017-12-28T04:02:06.047Z,1.67
2017-12-28T04:03:07.440Z,1.81
2017-12-28T04:04:07.105Z,1.7
2017-12-28T04:05:07.419Z,1.71
2017-12-28T04:06:07.557Z,1.68
2017-12-28T04:07:07.760Z,1.82
2017-12-28T04:08:07.757Z,1.76
2017-12-28T04:09:08.050Z,1.76
2017-12-28T04:10:08.185Z,1.76
2017-12-28T04:11:07.120Z,1.73
2017-12-28T04:12:07.327Z,1.79
2017-12-28T04:13:05.497Z,1.82
2017-12-28T04:14:05.811Z,1.76
2017-12-28T04:15:05.877Z,1.69
2017-12-28T04:16:05.731Z,1.72
2017-12-28T04:17:05.738Z,1.68
2017-12-28T04:18:05.821Z,1.76
2017-12-28T04:19:05.932Z,1.71
2017-12-28T04:20:05.964Z,1.67
2017-12-28T04:21:05.562Z,1.83
2017-12-28T04:22:05.662Z,1.78
2017-12-28T04:23:06.220Z,1.89
2017-12-28T04:24:07.346Z,1.89
2017-12-28T04:25:05.716Z,1.76
2017-12-28T04:26:06.083Z,1.73
2017-12-28T04:27:05.534Z,1.87
2017-12-28T04:28:05.495Z,1.8
2017-12-28T04:29:05.706Z,1.79
2017-12-28T04:30:06.116Z,1.86
2017-12-28T04:31:05.514Z,1.82
2017-12-28T04:32:05.924Z,1.85
2017-12-28T04:33:06.192Z,1.84
2017-12-28T04:34:05.344Z,1.84
2017-12-28T04:35:05.280Z,1.79
2017-12-28T04:36:05.457Z,1.87
2017-12-28T04:37:05.580Z,1.82
2017-12-28T04:38:05.485Z,1.84
2017-12-28T04:39:05.698Z,1.9
2017-12-28T04:40:05.898Z,1.85
2017-12-28T04:41:05.586Z,1.85
2017-12-28T04:42:05.931Z,1.86
2017-12-28T04:43:05.880Z,1.89
2017-12-28T04:44:05.911Z,1.9
2017-12-28T04:45:07.810Z,1.86
2017-12-28T04:46:05.928Z,1.96
2017-12-28T04:47:07.969Z,1.92
2017-12-28T04:48:07.384Z,1.94
2017-12-28T04:49:07.573Z,1.95
2017-12-28T04:50:07.952Z,1.89
2017-12-28T04:51:05.974Z,1.92
2017-12-28T04:52:05.980Z,1.97
2017-12-28T04:53:05.965Z,1.94
2017-12-28T04:54:06.000Z,1.99
2017-12-28T04:55:07.360Z,1.96
2017-12-28T04:56:07.603Z,1.95
2017-12-28T04:57:07.473Z,2.03
2017-12-28T04:58:07.900Z,2.01
2017-12-28T04:59:07.424Z,2.08
2017-12-28T05:00:07.814Z,1.99
2017-12-28T05:01:07.405Z,2.06
2017-12-28T05:02:07.702Z,2.04
2017-12-28T05:03:06.043Z,2.01
2017-12-28T05:04:07.441Z,2.04
2017-12-28T05:05:07.938Z,2.07
2017-12-28T05:06:06.075Z,2.04
2017-12-28T05:07:07.519Z,2.05
2017-12-28T05:08:07.722Z,2.05
2017-12-28T05:09:07.666Z,2.04
2017-12-28T05:10:05.935Z,1.99
2017-12-28T05:11:07.865Z,1.99
2017-12-28T05:12:06.025Z,2
2017-12-28T05:13:08.186Z,2
2017-12-28T05:14:07.474Z,2.05
2017-12-28T05:15:07.222Z,2.02
2017-12-28T05:16:07.814Z,2
2017-12-28T05:17:08.059Z,2
2017-12-28T05:18:06.328Z,1.96
2017-12-28T05:19:08.036Z,1.96
2017-12-28T05:20:06.267Z,1.94
2017-12-28T05:21:06.376Z,1.97
2017-12-28T05:22:06.638Z,1.99
2017-12-28T05:23:06.670Z,2.01
2017-12-28T05:24:06.840Z,2
2017-12-28T05:25:06.913Z,1.95
2017-12-28T05:26:07.063Z,1.99
2017-12-28T05:27:06.358Z,2
2017-12-28T05:28:06.358Z,2
2017-12-28T05:29:06.415Z,2
2017-12-28T05:30:06.406Z,2.01
2017-12-28T05:31:06.619Z,1.91
2017-12-28T05:32:06.915Z,1.91
2017-12-28T05:33:07.074Z,1.94
2017-12-28T05:34:06.142Z,1.93
2017-12-28T05:35:06.182Z,1.97
2017-12-28T05:36:06.600Z,1.95
2017-12-28T05:37:06.663Z,1.91
2017-12-28T05:38:06.720Z,1.9
2017-12-28T05:39:06.908Z,1.98
2017-12-28T05:40:06.101Z,1.91
2017-12-28T05:41:06.004Z,1.92
2017-12-28T05:42:07.145Z,1.93
2017-12-28T05:43:06.425Z,1.97
2017-12-28T05:44:06.664Z,1.92
2017-12-28T05:45:06.883Z,1.94
2017-12-28T05:46:07.104Z,1.93
2017-12-28T05:47:06.265Z,1.93
2017-12-28T05:48:06.335Z,1.95
2017-12-28T05:49:06.549Z,1.96
2017-12-28T05:50:06.673Z,1.95
2017-12-28T05:51:07.027Z,1.94
2017-12-28T05:52:06.043Z,1.92
2017-12-28T05:53:06.152Z,1.97
2017-12-28T05:54:06.433Z,1.94
2017-12-28T05:55:06.426Z,1.91
2017-12-28T05:56:06.673Z,1.94
2017-12-28T05:57:06.821Z,1.9
2017-12-28T05:58:07.019Z,1.93
2017-12-28T05:59:06.271Z,1.89
2017-12-28T06:00:06.295Z,1.9
2017-12-28T06:01:06.480Z,1.92
2017-12-28T06:02:06.382Z,1.91
2017-12-28T06:03:06.446Z,1.88
2017-12-28T06:04:06.372Z,1.89
2017-12-28T06:05:06.385Z,1.85
2017-12-28T06:06:06.167Z,1.84
2017-12-28T06:07:06.080Z,1.85
2017-12-28T06:08:06.416Z,1.89
2017-12-28T06:09:06.629Z,1.85
2017-12-28T06:10:06.820Z,1.84
2017-12-28T06:11:06.876Z,1.79
2017-12-28T06:12:06.862Z,1.82
2017-12-28T06:13:06.797Z,1.83
2017-12-28T06:14:05.942Z,1.83
2017-12-28T06:15:06.031Z,1.86
2017-12-28T06:16:06.270Z,1.84
2017-12-28T06:17:06.278Z,1.87
2017-12-28T06:18:06.305Z,1.82
2017-12-28T06:19:06.324Z,1.79
2017-12-28T06:20:06.562Z,1.81
2017-12-28T06:21:06.880Z,1.8
2017-12-28T06:22:05.826Z,1.85
2017-12-28T06:23:05.859Z,1.81
2017-12-28T06:24:06.067Z,1.8
2017-12-28T06:25:06.026Z,1.78
2017-12-28T06:26:06.082Z,1.75
2017-12-28T06:27:06.017Z,1.74
2017-12-28T06:28:06.220Z,1.77
2017-12-28T06:29:06.345Z,1.77
2017-12-28T06:30:06.541Z,1.82
2017-12-28T06:31:06.600Z,1.78
2017-12-28T06:32:06.605Z,1.8
2017-12-28T06:33:06.509Z,1.82
2017-12-28T06:34:06.148Z,1.79
2017-12-28T06:37:06.913Z,1.84
2017-12-28T06:38:06.902Z,1.8
2017-12-28T06:39:06.553Z,1.76
2017-12-28T06:40:06.400Z,1.78
2017-12-28T06:41:05.858Z,1.74
2017-12-28T06:42:05.816Z,1.73
2017-12-28T06:43:05.841Z,1.78
2017-12-28T06:44:06.046Z,1.74
2017-12-28T06:45:06.121Z,1.74
2017-12-28T06:46:06.191Z,1.73
2017-12-28T06:48:10.263Z,1.72
2017-12-28T06:49:06.334Z,1.7
2017-12-28T06:50:06.491Z,1.68
2017-12-28T06:51:06.310Z,1.71
2017-12-28T06:52:06.251Z,1.66
2017-12-28T06:53:06.154Z,1.65
2017-12-28T06:54:06.144Z,1.72
2017-12-28T06:55:05.953Z,1.68
2017-12-28T06:56:06.008Z,1.69
2017-12-28T06:57:06.013Z,1.65
2017-12-28T06:58:06.020Z,1.63
2017-12-28T06:59:06.012Z,1.61
2017-12-28T07:00:06.019Z,1.66
2017-12-28T07:01:06.919Z,1.66
2017-12-28T07:02:06.710Z,1.66
2017-12-28T07:03:06.822Z,1.71
2017-12-28T07:04:06.012Z,1.64
2017-12-28T07:05:06.109Z,1.71
2017-12-28T07:06:06.263Z,1.67
2017-12-28T07:07:06.302Z,1.64
2017-12-28T07:08:06.258Z,1.63
2017-12-28T07:09:06.386Z,1.67
2017-12-28T07:10:06.245Z,1.65
2017-12-28T07:11:06.286Z,1.65
2017-12-28T07:12:06.508Z,1.62
2017-12-28T07:13:06.496Z,1.65
2017-12-28T07:14:06.057Z,1.64
2017-12-28T07:15:06.826Z,1.65
2017-12-28T07:16:06.812Z,1.66
2017-12-28T07:17:06.534Z,1.65
2017-12-28T07:18:06.132Z,1.64
2017-12-28T07:19:06.293Z,1.65
2017-12-28T07:20:06.590Z,1.66
2017-12-28T07:21:07.283Z,1.63
2017-12-28T07:22:06.564Z,1.67
2017-12-28T07:23:06.864Z,1.68
2017-12-28T07:24:06.357Z,1.65
2017-12-28T07:25:06.260Z,1.65
2017-12-28T07:26:06.432Z,1.66
2017-12-28T07:27:06.410Z,1.65
2017-12-28T07:28:06.653Z,1.64
2017-12-28T07:29:06.365Z,1.65
2017-12-28T07:30:06.821Z,1.66
2017-12-28T07:31:06.912Z,1.6
2017-12-28T07:32:06.920Z,1.63
2017-12-28T07:33:06.603Z,1.64
2017-12-28T07:34:06.390Z,1.6
2017-12-28T07:35:07.093Z,1.6
2017-12-28T07:36:06.607Z,1.55
2017-12-28T07:37:06.953Z,1.6
2017-12-28T07:38:06.723Z,1.57
2017-12-28T07:39:06.868Z,1.55
2017-12-28T07:40:06.906Z,1.57
2017-12-28T07:41:06.271Z,1.58
2017-12-28T07:42:06.514Z,1.56
2017-12-28T07:43:06.511Z,1.58
2017-12-28T07:44:06.745Z,1.58
2017-12-28T07:45:05.844Z,1.54
2017-12-28T07:46:05.718Z,1.53
2017-12-28T07:47:05.849Z,1.55
2017-12-28T07:48:05.811Z,1.52
2017-12-28T07:49:05.947Z,1.51
2017-12-28T07:50:06.061Z,1.53
2017-12-28T07:51:06.105Z,1.55
2017-12-28T07:52:06.041Z,1.54
2017-12-28T07:53:06.258Z,1.55
2017-12-28T07:54:06.259Z,1.53
2017-12-28T07:55:06.352Z,1.59
2017-12-28T07:56:05.575Z,1.54
2017-12-28T07:57:05.797Z,1.58
2017-12-28T07:58:05.990Z,1.55
2017-12-28T07:59:05.997Z,1.58
2017-12-28T08:00:06.324Z,1.54
2017-12-28T08:01:06.331Z,1.55
2017-12-28T08:02:05.350Z,1.54
2017-12-28T08:03:06.544Z,1.57
2017-12-28T08:04:06.140Z,1.54
2017-12-28T08:05:06.343Z,1.53
2017-12-28T08:06:06.179Z,1.54
2017-12-28T08:07:06.201Z,1.59
2017-12-28T08:08:05.340Z,1.61
2017-12-28T08:09:06.307Z,1.52
2017-12-28T08:10:05.459Z,1.54
2017-12-28T08:11:05.421Z,1.54
2017-12-28T08:12:05.376Z,1.5
2017-12-28T08:13:06.240Z,1.49
2017-12-28T08:14:06.095Z,1.49
2017-12-28T08:15:06.113Z,1.51
2017-12-28T08:16:05.983Z,1.47
2017-12-28T08:17:07.164Z,1.46
2017-12-28T08:18:06.810Z,1.5
2017-12-28T08:19:06.836Z,1.47
2017-12-28T08:20:06.625Z,1.48
2017-12-28T08:21:06.459Z,1.48
2017-12-28T08:22:06.230Z,1.49
2017-12-28T08:23:06.146Z,1.49
2017-12-28T08:24:06.224Z,1.49
2017-12-28T08:25:06.376Z,1.51
2017-12-28T08:26:06.620Z,1.49
2017-12-28T08:27:06.644Z,1.48
2017-12-28T08:28:06.783Z,1.49
2017-12-28T08:29:06.838Z,1.49
2017-12-28T08:30:06.660Z,1.5
2017-12-28T08:31:06.783Z,1.52
2017-12-28T08:32:06.858Z,1.53
2017-12-28T08:33:06.985Z,1.52
2017-12-28T08:34:06.976Z,1.5
2017-12-28T08:35:06.817Z,1.56
2017-12-28T08:36:06.041Z,1.51
2017-12-28T08:37:06.977Z,1.47
2017-12-28T08:38:06.115Z,1.48
2017-12-28T08:39:07.020Z,1.47
2017-12-28T08:40:06.451Z,1.48
2017-12-28T08:41:06.157Z,1.47
2017-12-28T08:42:06.210Z,1.5
2017-12-28T08:43:06.703Z,1.48
2017-12-28T08:44:06.788Z,1.46
2017-12-28T08:45:06.766Z,1.46
2017-12-28T08:46:06.416Z,1.42
2017-12-28T08:47:06.758Z,1.43
2017-12-28T08:48:06.351Z,1.43
2017-12-28T08:49:06.467Z,1.42
2017-12-28T08:50:06.602Z,1.41
2017-12-28T08:51:06.515Z,1.37
2017-12-28T08:52:06.623Z,1.39
2017-12-28T08:53:06.501Z,1.38
2017-12-28T08:54:06.712Z,1.39
2017-12-28T08:55:06.659Z,1.39
2017-12-28T08:56:05.778Z,1.39
2017-12-28T08:57:06.626Z,1.38
2017-12-28T08:58:05.737Z,1.35
2017-12-28T08:59:05.682Z,1.38
2017-12-28T09:00:06.656Z,1.39
2017-12-28T09:01:05.848Z,1.35
2017-12-28T09:02:05.915Z,1.34
2017-12-28T09:03:06.104Z,1.34
2017-12-28T09:04:06.482Z,1.37
2017-12-28T09:05:06.584Z,1.29
2017-12-28T09:06:06.738Z,1.29
2017-12-28T09:07:05.968Z,1.32
2017-12-28T09:08:06.030Z,1.31
2017-12-28T09:09:06.398Z,1.32
2017-12-28T09:10:06.427Z,1.3
2017-12-28T09:11:06.838Z,1.29
2017-12-28T09:12:05.778Z,1.3
2017-12-28T09:13:06.820Z,1.28
2017-12-28T09:14:05.893Z,1.27
2017-12-28T09:15:05.901Z,1.28
2017-12-28T09:16:07.133Z,1.27
2017-12-28T09:17:05.330Z,1.24
2017-12-28T09:18:06.259Z,1.26
2017-12-28T09:19:05.339Z,1.32
2017-12-28T09:20:06.106Z,1.32
2017-12-28T09:21:06.071Z,1.27
2017-12-28T09:22:06.140Z,1.28
2017-12-28T09:23:06.261Z,1.27
2017-12-28T09:24:05.460Z,1.28
2017-12-28T09:25:05.528Z,1.3
2017-12-28T09:26:05.601Z,1.3
2017-12-28T09:27:06.046Z,1.3
2017-12-28T09:28:05.842Z,1.26
2017-12-28T09:29:05.748Z,1.26
2017-12-28T09:30:05.654Z,1.25
2017-12-28T09:31:05.585Z,1.22
2017-12-28T09:32:05.575Z,1.22
2017-12-28T09:33:05.679Z,1.23
2017-12-28T09:34:05.744Z,1.22
2017-12-28T09:35:05.856Z,1.24
2017-12-28T09:36:06.085Z,1.27
2017-12-28T09:37:06.201Z,1.27
2017-12-28T09:38:06.223Z,1.28
2017-12-28T09:39:06.336Z,1.31
2017-12-28T09:40:06.146Z,1.26
2017-12-28T09:41:06.250Z,1.24
2017-12-28T09:42:06.470Z,1.25
2017-12-28T09:43:05.956Z,1.28
2017-12-28T09:44:06.293Z,1.27
2017-12-28T09:45:05.874Z,1.32
2017-12-28T09:46:05.874Z,1.38
2017-12-28T09:47:06.054Z,1.37
2017-12-28T09:48:06.975Z,1.33
2017-12-28T09:49:06.957Z,1.41
2017-12-28T09:50:07.142Z,1.36
2017-12-28T09:51:06.426Z,1.37
2017-12-28T09:52:06.676Z,1.37
2017-12-28T09:53:07.007Z,1.35
2017-12-28T09:54:06.430Z,1.4
2017-12-28T09:55:01.242Z,1.48
2017-12-28T09:56:01.486Z,1.47
2017-12-28T09:57:01.727Z,1.5
2017-12-28T09:58:01.763Z,1.44
2017-12-28T09:59:01.917Z,1.46
2017-12-28T10:00:01.986Z,1.48
2017-12-28T10:01:01.383Z,1.48
2017-12-28T10:02:01.396Z,1.48
2017-12-28T10:03:02.974Z,1.46
2017-12-28T10:04:01.711Z,1.5
2017-12-28T10:05:02.588Z,1.45
2017-12-28T10:06:02.831Z,1.36
2017-12-28T10:07:01.528Z,1.41
2017-12-28T10:08:01.697Z,1.43
2017-12-28T10:09:01.799Z,1.4
2017-12-28T10:10:01.817Z,1.46
2017-12-28T10:11:03.416Z,1.5
2017-12-28T10:12:01.836Z,1.46
2017-12-28T10:13:01.179Z,1.38
2017-12-28T10:14:03.960Z,1.45
2017-12-28T10:15:01.950Z,1.46
2017-12-28T10:16:02.819Z,1.48
2017-12-28T10:17:01.864Z,1.51
2017-12-28T10:18:01.963Z,1.47
2017-12-28T10:19:01.917Z,1.47
2017-12-28T10:20:01.357Z,1.4
2017-12-28T10:21:01.518Z,1.47
2017-12-28T10:22:01.645Z,1.43
2017-12-28T10:23:01.905Z,1.39
2017-12-28T10:24:01.234Z,1.41
2017-12-28T10:25:01.329Z,1.45
2017-12-28T10:26:00.427Z,1.3
2017-12-28T10:27:00.482Z,1.36
2017-12-28T10:28:00.536Z,1.42
2017-12-28T10:29:00.665Z,1.43
2017-12-28T10:30:00.911Z,1.43
2017-12-28T10:31:00.891Z,1.39
2017-12-28T10:32:00.902Z,1.41
2017-12-28T10:33:00.948Z,1.43
2017-12-28T10:34:01.293Z,1.42
2017-12-28T10:35:00.452Z,1.41
2017-12-28T10:36:00.563Z,1.41
2017-12-28T10:37:00.762Z,1.38
2017-12-28T10:38:00.730Z,1.41
2017-12-28T10:39:01.023Z,1.38
2017-12-28T10:40:01.133Z,1.4
2017-12-28T10:41:00.360Z,1.44
2017-12-28T10:42:00.453Z,1.47
2017-12-28T10:43:00.598Z,1.48
2017-12-28T10:44:00.615Z,1.46
2017-12-28T10:45:00.689Z,1.51
2017-12-28T10:46:01.044Z,1.48
2017-12-28T10:47:00.519Z,1.5
2017-12-28T10:48:00.562Z,1.49
2017-12-28T10:49:00.572Z,1.43
2017-12-28T10:50:00.984Z,1.41
2017-12-28T10:51:01.248Z,1.44
2017-12-28T10:52:01.687Z,1.38
2017-12-28T10:53:00.476Z,1.43
2017-12-28T10:54:00.877Z,1.44
2017-12-28T10:55:01.429Z,1.36
2017-12-28T10:56:02.367Z,1.34
2017-12-28T10:57:01.941Z,1.38
2017-12-28T10:58:01.972Z,1.38
2017-12-28T10:59:02.001Z,1.42
2017-12-28T11:00:02.493Z,1.35
2017-12-28T11:01:01.731Z,1.39
2017-12-28T11:02:01.914Z,1.39
2017-12-28T11:03:01.988Z,1.31
2017-12-28T11:04:01.174Z,1.35
2017-12-28T11:05:01.128Z,1.3
2017-12-28T11:06:01.474Z,1.37
2017-12-28T11:07:01.610Z,1.35
2017-12-28T11:08:01.582Z,1.31
2017-12-28T11:09:01.575Z,1.36
2017-12-28T11:10:01.674Z,1.4
2017-12-28T11:11:02.878Z,1.39
2017-12-28T11:12:01.728Z,1.43
2017-12-28T11:13:02.053Z,1.38
2017-12-28T11:14:01.333Z,1.43
2017-12-28T11:15:01.391Z,1.46
2017-12-28T11:16:01.607Z,1.39
2017-12-28T11:17:01.690Z,1.42
2017-12-28T11:18:01.949Z,1.43
2017-12-28T11:19:02.043Z,1.42
2017-12-28T11:20:00.997Z,1.44
2017-12-28T11:21:02.018Z,1.36
2017-12-28T11:22:02.048Z,1.31
2017-12-28T11:23:01.345Z,1.36
2017-12-28T11:24:01.136Z,1.32
2017-12-28T11:25:01.922Z,1.38
2017-12-28T11:26:01.371Z,1.36
2017-12-28T11:27:00.558Z,1.4
2017-12-28T11:28:00.859Z,1.43
2017-12-28T11:29:00.817Z,1.46
2017-12-28T11:30:00.938Z,1.44
2017-12-28T11:31:01.047Z,1.46
2017-12-28T11:32:01.139Z,1.44
2017-12-28T11:33:00.487Z,1.42
2017-12-28T11:34:00.656Z,1.42
2017-12-28T11:35:01.086Z,1.46
2017-12-28T11:36:00.472Z,1.47
2017-12-28T11:37:00.433Z,1.47
2017-12-28T11:38:00.636Z,1.5
2017-12-28T11:39:01.034Z,1.52
2017-12-28T11:40:00.450Z,1.55
2017-12-28T11:41:00.906Z,1.58
2017-12-28T11:42:01.245Z,1.58
2017-12-28T11:43:00.809Z,1.59
2017-12-28T11:44:01.252Z,1.58
2017-12-28T11:45:00.499Z,1.57
2017-12-28T11:46:00.874Z,1.52
2017-12-28T11:47:00.452Z,1.55
2017-12-28T11:48:01.213Z,1.54
2017-12-28T11:49:00.629Z,1.55
2017-12-28T11:50:01.156Z,1.57
2017-12-28T11:51:00.505Z,1.55
2017-12-28T11:52:00.782Z,1.55
2017-12-28T11:53:01.002Z,1.58
2017-12-28T11:54:01.137Z,1.55
2017-12-28T11:55:00.480Z,1.54
2017-12-28T11:56:00.894Z,1.53
2017-12-28T11:57:00.426Z,1.51
2017-12-28T11:58:00.800Z,1.51
2017-12-28T11:59:01.339Z,1.52
2017-12-28T12:00:00.611Z,1.56
2017-12-28T12:01:01.282Z,1.52
2017-12-28T12:02:00.997Z,1.5
2017-12-28T12:03:01.393Z,1.49
2017-12-28T12:04:00.822Z,1.51
2017-12-28T12:05:01.109Z,1.46
2017-12-28T12:06:00.466Z,1.47
2017-12-28T12:07:00.835Z,1.52
2017-12-28T12:08:01.263Z,1.49
2017-12-28T12:09:00.694Z,1.5
2017-12-28T12:10:01.023Z,1.47
2017-12-28T12:11:00.425Z,1.5
2017-12-28T12:12:00.901Z,1.46
2017-12-28T12:13:00.408Z,1.44
2017-12-28T12:14:00.577Z,1.52
2017-12-28T12:15:01.083Z,1.47
2017-12-28T12:16:00.862Z,1.52
2017-12-28T12:17:01.116Z,1.47
2017-12-28T12:18:00.589Z,1.52
2017-12-28T12:19:00.894Z,1.5
2017-12-28T12:20:01.500Z,1.45
2017-12-28T12:21:01.208Z,1.49
2017-12-28T12:22:00.616Z,1.56
2017-12-28T12:23:01.215Z,1.46
2017-12-28T12:24:00.604Z,1.54
2017-12-28T12:25:01.314Z,1.54
2017-12-28T12:26:00.877Z,1.58
2017-12-28T12:27:01.431Z,1.55
2017-12-28T12:28:00.982Z,1.53
2017-12-28T12:29:00.413Z,1.54
2017-12-28T12:30:00.960Z,1.55
2017-12-28T12:31:01.554Z,1.53
2017-12-28T12:32:00.981Z,1.51
2017-12-28T12:33:01.643Z,1.57
2017-12-28T12:34:00.939Z,1.54
2017-12-28T12:35:01.293Z,1.58
2017-12-28T12:36:00.862Z,1.57
2017-12-28T12:37:01.449Z,1.57
2017-12-28T12:38:00.772Z,1.56
2017-12-28T12:39:01.061Z,1.56
2017-12-28T12:40:00.532Z,1.63
2017-12-28T12:41:02.513Z,1.59
2017-12-28T12:42:03.024Z,1.6
2017-12-28T12:43:00.383Z,1.63
2017-12-28T12:44:00.983Z,1.62
2017-12-28T12:45:01.489Z,1.67
2017-12-28T12:46:01.000Z,1.65
2017-12-28T12:47:01.239Z,1.67
2017-12-28T12:48:00.395Z,1.65
2017-12-28T12:49:00.569Z,1.68
2017-12-28T12:50:01.316Z,1.68
2017-12-28T12:51:00.707Z,1.66
2017-12-28T12:52:00.948Z,1.66
2017-12-28T12:53:00.366Z,1.77
2017-12-28T12:54:00.626Z,1.74
2017-12-28T12:55:01.126Z,1.71
2017-12-28T12:56:00.713Z,1.66
2017-12-28T12:57:01.137Z,1.63
2017-12-28T12:58:00.749Z,1.65
2017-12-28T12:59:01.188Z,1.68
2017-12-28T13:00:00.641Z,1.73
2017-12-28T13:01:00.993Z,1.7
2017-12-28T13:02:00.925Z,1.69
2017-12-28T13:03:00.904Z,1.72
2017-12-28T13:04:01.130Z,1.71
2017-12-28T13:05:01.045Z,1.69
2017-12-28T13:06:00.947Z,1.71
2017-12-28T13:07:00.842Z,1.73
2017-12-28T13:08:00.896Z,1.77
2017-12-28T13:09:00.676Z,1.76
2017-12-28T13:10:00.606Z,1.77
2017-12-28T13:11:00.640Z,1.78
2017-12-28T13:12:00.752Z,1.72
2017-12-28T13:13:00.794Z,1.74
2017-12-28T13:14:00.838Z,1.73
2017-12-28T13:15:00.872Z,1.82
2017-12-28T13:16:00.897Z,1.76
2017-12-28T13:17:00.718Z,1.76
2017-12-28T13:18:00.588Z,1.78
2017-12-28T13:19:00.492Z,1.8
2017-12-28T13:20:00.599Z,1.86
2017-12-28T13:21:00.930Z,1.78
2017-12-28T13:22:00.889Z,1.8
2017-12-28T13:23:00.749Z,1.79
2017-12-28T13:24:00.754Z,1.79
2017-12-28T13:25:00.828Z,1.76
2017-12-28T13:26:00.767Z,1.8